createdAt,value
2022-10-19T00:01:04.263Z,99537.34
2022-10-19T00:03:32.056Z,99526.72
2022-10-19T00:05:59.255Z,99524.31
2022-10-19T00:08:26.643Z,99517.44
2022-10-19T00:10:53.371Z,99513.88
2022-10-19T00:13:20.133Z,99512.09
2022-10-19T00:15:46.854Z,99512.22
2022-10-19T00:18:13.577Z,99511.31
2022-10-19T00:20:40.393Z,99502.66
2022-10-19T00:23:07.179Z,99509.94
2022-10-19T00:25:33.835Z,99495.13
2022-10-19T00:28:01.269Z,99494.47
2022-10-19T00:30:28.001Z,99493.69
2022-10-19T00:32:54.754Z,99479.94
2022-10-19T00:35:21.811Z,99472.28
2022-10-19T00:37:48.617Z,99478.78
2022-10-19T00:40:15.410Z,99474.34
2022-10-19T00:42:42.126Z,99471.72
2022-10-19T00:45:16.573Z,99467.66
2022-10-19T00:47:44.955Z,99465.16
2022-10-19T00:50:14.416Z,99458.97
2022-10-19T00:52:41.720Z,99461.53
2022-10-19T00:55:09.955Z,99464.13
2022-10-19T00:57:37.124Z,99451.84
2022-10-19T01:00:06.685Z,99448.47
2022-10-19T01:02:33.699Z,99444.16
2022-10-19T01:05:01.505Z,99446.75
2022-10-19T01:07:28.458Z,99441.66
2022-10-19T01:09:55.877Z,99432.94
2022-10-19T01:12:39.499Z,99430.47
2022-10-19T01:15:22.546Z,99434.19
2022-10-19T01:17:49.201Z,99433.69
2022-10-19T01:20:57.419Z,99423.56
2022-10-19T01:23:49.017Z,99425.59
2022-10-19T01:26:46.305Z,99422.28
2022-10-19T01:29:19.042Z,99420.66
2022-10-19T01:32:14.463Z,99410.16
2022-10-19T01:35:10.385Z,99408.72
2022-10-19T01:37:55.230Z,99404.38
2022-10-19T01:40:40.668Z,99404.38
2022-10-19T01:43:13.151Z,99397.53
2022-10-19T01:45:48.062Z,99400.97
2022-10-19T01:48:19.692Z,99400.13
2022-10-19T01:50:50.035Z,99397.44
2022-10-19T01:53:19.560Z,99392.16
2022-10-19T01:55:50.541Z,99387.84
2022-10-19T01:58:22.637Z,99389.63
2022-10-19T02:00:52.416Z,99383.53
2022-10-19T02:03:20.029Z,99385.22
2022-10-19T02:05:48.286Z,99386.00
2022-10-19T02:08:20.490Z,99390.09
2022-10-19T02:10:48.089Z,99389.78
2022-10-19T02:13:16.572Z,99385.91
2022-10-19T02:15:48.153Z,99394.22
2022-10-19T02:18:20.235Z,99385.84
2022-10-19T02:20:47.205Z,99392.22
2022-10-19T02:23:17.355Z,99382.75
2022-10-19T02:25:44.167Z,99386.38
2022-10-19T02:28:11.290Z,99388.13
2022-10-19T02:30:38.079Z,99388.22
2022-10-19T02:33:04.961Z,99374.31
2022-10-19T02:35:31.804Z,99382.25
2022-10-19T02:38:02.303Z,99377.91
2022-10-19T02:40:34.529Z,99373.22
2022-10-19T02:43:05.888Z,99365.25
2022-10-19T02:45:37.269Z,99367.81
2022-10-19T02:48:24.940Z,99361.72
2022-10-19T02:50:52.164Z,99356.53
2022-10-19T02:53:19.181Z,99359.25
2022-10-19T02:55:49.297Z,99348.88
2022-10-19T02:58:16.302Z,99345.66
2022-10-19T03:00:43.217Z,99349.50
2022-10-19T03:03:10.392Z,99346.13
2022-10-19T03:05:37.499Z,99339.41
2022-10-19T03:08:04.507Z,99330.91
2022-10-19T03:10:31.314Z,99328.25
2022-10-19T03:12:58.631Z,99323.16
2022-10-19T03:15:29.084Z,99325.28
2022-10-19T03:17:56.676Z,99314.50
2022-10-19T03:20:23.801Z,99311.94
2022-10-19T03:22:50.777Z,99308.88
2022-10-19T03:25:17.756Z,99310.06
2022-10-19T03:27:44.527Z,99314.19
2022-10-19T03:30:11.706Z,99315.63
2022-10-19T03:32:38.644Z,99318.91
2022-10-19T03:35:06.182Z,99320.53
2022-10-19T03:37:33.300Z,99333.78
2022-10-19T03:40:00.407Z,99327.38
2022-10-19T03:42:27.125Z,99329.06
2022-10-19T03:44:53.949Z,99333.63
2022-10-19T03:47:20.769Z,99335.44
2022-10-19T03:49:47.635Z,99355.63
2022-10-19T03:52:14.505Z,99359.81
2022-10-19T03:54:41.423Z,99352.34
2022-10-19T03:57:08.118Z,99360.06
2022-10-19T03:59:34.912Z,99361.34
2022-10-19T04:02:01.674Z,99361.84
2022-10-19T04:04:28.543Z,99367.00
2022-10-19T04:06:55.222Z,99359.53
2022-10-19T04:09:23.187Z,99352.03
2022-10-19T04:11:50.393Z,99347.75
2022-10-19T04:14:27.190Z,99346.75
2022-10-19T04:17:00.972Z,99338.00
2022-10-19T04:19:27.798Z,99339.97
2022-10-19T04:21:54.615Z,99322.63
2022-10-19T04:24:21.588Z,99340.16
2022-10-19T04:26:54.249Z,99338.53
2022-10-19T04:29:26.457Z,99352.75
2022-10-19T04:31:56.502Z,99360.13
2022-10-19T04:34:23.297Z,99356.72
2022-10-19T04:36:50.102Z,99356.88
2022-10-19T04:39:16.905Z,99351.00
2022-10-19T04:41:43.746Z,99349.72
2022-10-19T04:44:10.731Z,99363.22
2022-10-19T04:46:38.528Z,99376.16
2022-10-19T04:49:06.901Z,99382.66
2022-10-19T04:51:34.581Z,99382.97
2022-10-19T04:54:02.965Z,99378.84
2022-10-19T04:56:30.943Z,99370.22
2022-10-19T04:58:59.118Z,99364.84
2022-10-19T05:01:28.150Z,99371.34
2022-10-19T05:06:29.538Z,99369.78
2022-10-19T05:08:56.729Z,99370.97
2022-10-19T05:11:23.763Z,99365.66
2022-10-19T05:13:50.944Z,99374.59
2022-10-19T05:16:21.172Z,99391.41
2022-10-19T05:18:50.106Z,99403.91
2022-10-19T05:21:18.660Z,99417.09
2022-10-19T05:23:45.735Z,99430.34
2022-10-19T05:26:18.222Z,99417.94
2022-10-19T05:28:49.019Z,99422.06
2022-10-19T05:31:18.436Z,99414.72
2022-10-19T05:33:45.240Z,99396.81
2022-10-19T05:36:19.742Z,99398.31
2022-10-19T05:38:49.103Z,99410.28
2022-10-19T05:41:16.359Z,99420.63
2022-10-19T05:43:43.745Z,99435.56
2022-10-19T05:46:13.709Z,99438.50
2022-10-19T05:48:41.727Z,99436.44
2022-10-19T05:51:11.621Z,99437.03
2022-10-19T05:56:15.209Z,99430.38
2022-10-19T05:58:42.246Z,99436.84
2022-10-19T06:01:09.596Z,99433.78
2022-10-19T06:03:36.735Z,99439.84
2022-10-19T06:06:05.294Z,99443.69
2022-10-19T06:08:32.218Z,99452.25
2022-10-19T06:11:13.829Z,99450.69
2022-10-19T06:13:42.238Z,99459.06
2022-10-19T06:16:11.467Z,99461.88
2022-10-19T06:18:38.367Z,99456.94
2022-10-19T06:21:08.207Z,99457.56
2022-10-19T06:23:36.317Z,99458.59
2022-10-19T06:26:09.130Z,99463.56
2022-10-19T06:28:36.650Z,99465.16
2022-10-19T06:31:07.127Z,99468.78
2022-10-19T06:33:36.735Z,99473.81
2022-10-19T06:36:07.629Z,99472.47
2022-10-19T06:38:34.486Z,99472.47
2022-10-19T06:41:01.227Z,99477.59
2022-10-19T06:43:28.397Z,99470.75
2022-10-19T06:45:55.686Z,99483.88
2022-10-19T06:48:22.640Z,99485.19
2022-10-19T06:51:06.330Z,99484.88
2022-10-19T06:53:34.834Z,99481.06
2022-10-19T06:56:03.401Z,99483.78
2022-10-19T06:58:30.942Z,99476.53
2022-10-19T07:01:01.365Z,99478.09
2022-10-19T07:03:29.624Z,99469.41
2022-10-19T07:06:00.934Z,99472.78
2022-10-19T07:08:29.681Z,99480.66
2022-10-19T07:10:59.454Z,99481.16
2022-10-19T07:13:27.274Z,99471.78
2022-10-19T07:15:58.855Z,99468.13
2022-10-19T07:18:26.968Z,99476.00
2022-10-19T07:21:04.349Z,99470.84
2022-10-19T07:23:32.974Z,99471.69
2022-10-19T07:26:07.355Z,99475.69
2022-10-19T07:28:35.296Z,99470.78
2022-10-19T07:31:09.230Z,99484.00
2022-10-19T07:33:36.376Z,99476.78
2022-10-19T07:36:06.052Z,99478.78
2022-10-19T07:38:33.662Z,99481.31
2022-10-19T07:41:15.424Z,99467.66
2022-10-19T07:43:44.459Z,99470.41
2022-10-19T07:46:17.513Z,99481.75
2022-10-19T07:48:44.615Z,99485.31
2022-10-19T07:51:13.512Z,99478.75
2022-10-19T07:53:41.047Z,99477.59
2022-10-19T07:56:10.937Z,99474.16
2022-10-19T07:58:38.365Z,99484.91
2022-10-19T08:01:07.530Z,99475.22
2022-10-19T08:06:22.644Z,99473.81
2022-10-19T08:08:50.038Z,99470.31
2022-10-19T08:11:16.780Z,99470.31
2022-10-19T08:13:43.823Z,99465.91
2022-10-19T08:16:28.794Z,99464.13
2022-10-19T08:19:01.491Z,99459.75
2022-10-19T08:21:28.829Z,99458.34
2022-10-19T08:23:55.870Z,99459.63
2022-10-19T08:26:22.717Z,99468.25
2022-10-19T08:28:49.561Z,99460.69
2022-10-19T08:31:19.515Z,99463.56
2022-10-19T08:33:46.565Z,99452.69
2022-10-19T08:36:14.284Z,99459.31
2022-10-19T08:38:43.740Z,99450.69
2022-10-19T08:41:35.102Z,99444.19
2022-10-19T08:44:28.340Z,99444.41
2022-10-19T08:47:04.497Z,99432.25
2022-10-19T08:49:33.322Z,99425.75
2022-10-19T08:52:05.914Z,99432.97
2022-10-19T08:54:50.949Z,99430.81
2022-10-19T08:57:45.027Z,99432.22
2022-10-19T09:00:17.846Z,99426.63
2022-10-19T09:02:57.859Z,99426.03
2022-10-19T09:05:38.920Z,99423.00
2022-10-19T09:08:10.605Z,99428.84
2022-10-19T09:10:44.364Z,99431.50
2022-10-19T09:13:47.020Z,99423.22
2022-10-19T09:16:26.084Z,99427.75
2022-10-19T09:21:40.938Z,99426.16
2022-10-19T09:24:29.456Z,99421.53
2022-10-19T09:26:59.960Z,99412.25
2022-10-19T09:29:36.605Z,99420.06
2022-10-19T09:32:10.273Z,99417.00
2022-10-19T09:34:42.848Z,99410.81
2022-10-19T09:37:18.877Z,99409.50
2022-10-19T09:39:54.786Z,99395.97
2022-10-19T09:42:26.681Z,99404.19
2022-10-19T09:44:55.117Z,99405.28
2022-10-19T09:47:33.994Z,99401.09
2022-10-19T09:50:19.077Z,99388.78
2022-10-19T09:52:48.808Z,99398.25
2022-10-19T09:55:15.864Z,99399.31
2022-10-19T09:57:47.855Z,99399.41
2022-10-19T10:00:26.355Z,99407.38
2022-10-19T10:02:54.811Z,99392.84
2022-10-19T10:05:37.210Z,99400.78
2022-10-19T10:08:12.321Z,99395.47
2022-10-19T10:10:44.372Z,99383.94
2022-10-19T10:13:23.755Z,99382.31
2022-10-19T10:16:03.961Z,99377.94
2022-10-19T10:18:30.808Z,99383.13
2022-10-19T10:20:59.584Z,99385.53
2022-10-19T10:23:29.610Z,99385.25
2022-10-19T10:25:58.503Z,99378.34
2022-10-19T10:28:27.671Z,99381.50
2022-10-19T10:31:08.120Z,99381.78
2022-10-19T10:33:45.060Z,99383.38
2022-10-19T10:36:13.000Z,99371.22
2022-10-19T10:38:49.896Z,99358.50
2022-10-19T10:41:20.220Z,99353.81
2022-10-19T10:43:59.603Z,99344.97
2022-10-19T10:46:35.705Z,99346.63
2022-10-19T10:49:08.019Z,99342.03
2022-10-19T10:51:37.490Z,99347.28
2022-10-19T10:54:26.488Z,99354.19
2022-10-19T10:57:12.842Z,99339.19
2022-10-19T11:00:12.285Z,99339.97
2022-10-19T11:03:02.079Z,99328.22
2022-10-19T11:05:33.787Z,99315.75
2022-10-19T11:08:14.603Z,99312.34
2022-10-19T11:10:49.348Z,99306.75
2022-10-19T11:13:30.418Z,99293.31
2022-10-19T11:16:06.574Z,99295.31
2022-10-19T11:18:43.580Z,99299.50
2022-10-19T11:21:23.778Z,99291.53
2022-10-19T11:24:02.638Z,99289.97
2022-10-19T11:26:47.572Z,99286.03
2022-10-19T11:29:32.809Z,99288.91
2022-10-19T11:31:59.985Z,99286.19
2022-10-19T11:35:02.077Z,99294.22
2022-10-19T11:37:49.722Z,99274.72
2022-10-19T11:40:29.223Z,99279.03
2022-10-19T11:43:12.766Z,99279.47
2022-10-19T11:46:14.616Z,99275.25
2022-10-19T11:48:56.604Z,99265.94
2022-10-19T11:51:58.840Z,99260.00
2022-10-19T11:54:58.916Z,99267.09
2022-10-19T11:57:35.191Z,99254.00
2022-10-19T12:00:15.401Z,99256.78
2022-10-19T12:03:08.921Z,99258.97
2022-10-19T12:05:43.487Z,99250.63
2022-10-19T12:08:22.353Z,99253.25
2022-10-19T12:11:19.013Z,99254.19
2022-10-19T12:13:54.305Z,99248.47
2022-10-19T12:16:24.529Z,99251.94
2022-10-19T12:18:55.756Z,99250.22
2022-10-19T12:21:31.205Z,99252.56
2022-10-19T12:24:00.562Z,99245.63
2022-10-19T12:26:32.604Z,99239.06
2022-10-19T12:29:03.206Z,99234.56
2022-10-19T12:31:30.916Z,99241.13
2022-10-19T12:34:06.317Z,99245.75
2022-10-19T12:36:35.726Z,99248.16
2022-10-19T12:39:23.512Z,99246.09
2022-10-19T12:42:10.775Z,99247.28
2022-10-19T12:45:01.651Z,99244.63
2022-10-19T12:47:28.475Z,99245.94
2022-10-19T12:49:56.359Z,99237.78
2022-10-19T12:52:35.741Z,99240.22
2022-10-19T12:55:21.135Z,99236.81
2022-10-19T12:57:56.082Z,99233.91
2022-10-19T13:00:26.268Z,99229.25
2022-10-19T13:03:25.030Z,99226.44
2022-10-19T13:06:23.553Z,99229.56
2022-10-19T13:08:53.387Z,99230.88
2022-10-19T13:11:21.022Z,99233.78
2022-10-19T13:14:26.922Z,99215.94
2022-10-19T13:17:01.928Z,99222.78
2022-10-19T13:19:29.652Z,99221.56
2022-10-19T13:22:02.163Z,99222.06
2022-10-19T13:24:37.217Z,99220.34
2022-10-19T13:27:04.021Z,99206.28
2022-10-19T13:29:44.490Z,99203.22
2022-10-19T13:32:37.082Z,99197.50
2022-10-19T13:35:35.335Z,99194.31
2022-10-19T13:38:17.459Z,99189.91
2022-10-19T13:41:01.011Z,99194.09
2022-10-19T13:43:39.554Z,99197.84
2022-10-19T13:46:06.364Z,99192.22
2022-10-19T13:49:04.998Z,99191.91
2022-10-19T13:51:53.415Z,99200.97
2022-10-19T13:54:25.939Z,99189.34
2022-10-19T13:57:21.368Z,99194.47
2022-10-19T14:00:04.405Z,99193.75
2022-10-19T14:02:50.714Z,99190.47
2022-10-19T14:05:23.195Z,99180.56
2022-10-19T14:07:52.578Z,99177.78
2022-10-19T14:10:28.180Z,99185.25
2022-10-19T14:13:01.887Z,99184.41
2022-10-19T14:15:34.751Z,99185.59
2022-10-19T14:18:03.835Z,99181.66
2022-10-19T14:20:34.056Z,99182.09
2022-10-19T14:23:24.242Z,99174.66
2022-10-19T14:25:58.883Z,99177.00
2022-10-19T14:28:26.795Z,99172.72
2022-10-19T14:31:03.443Z,99174.22
2022-10-19T14:33:33.914Z,99172.41
2022-10-19T14:36:01.560Z,99171.03
2022-10-19T14:38:35.256Z,99166.63
2022-10-19T14:41:06.598Z,99164.09
2022-10-19T14:43:34.855Z,99166.13
2022-10-19T14:46:04.290Z,99167.69
2022-10-19T14:48:31.118Z,99162.03
2022-10-19T14:50:58.348Z,99166.56
2022-10-19T14:53:42.467Z,99158.06
2022-10-19T14:56:23.872Z,99153.66
2022-10-19T14:58:54.058Z,99152.56
2022-10-19T15:01:21.541Z,99152.63
2022-10-19T15:03:49.998Z,99149.56
2022-10-19T15:06:21.667Z,99159.66
2022-10-19T15:11:49.974Z,99163.97
2022-10-19T15:14:22.135Z,99168.63
2022-10-19T15:17:00.819Z,99158.19
2022-10-19T15:19:38.025Z,99168.81
2022-10-19T15:22:23.766Z,99168.16
2022-10-19T15:24:58.287Z,99168.06
2022-10-19T15:27:45.595Z,99177.53
2022-10-19T15:30:18.527Z,99177.84
2022-10-19T15:32:51.036Z,99179.00
2022-10-19T15:35:27.150Z,99173.22
2022-10-19T15:38:02.006Z,99169.31
2022-10-19T15:40:38.233Z,99172.41
2022-10-19T15:43:37.807Z,99174.59
2022-10-19T15:46:20.712Z,99169.28
2022-10-19T15:48:52.418Z,99162.94
2022-10-19T15:51:24.996Z,99168.00
2022-10-19T15:54:03.499Z,99166.44
2022-10-19T15:56:33.053Z,99168.34
2022-10-19T15:59:02.128Z,99166.94
2022-10-19T16:01:31.734Z,99169.50
2022-10-19T16:03:59.813Z,99169.94
2022-10-19T16:06:30.812Z,99168.53
2022-10-19T16:08:58.818Z,99174.97
2022-10-19T16:11:27.001Z,99177.16
2022-10-19T16:13:53.847Z,99181.81
2022-10-19T16:16:29.799Z,99181.25
2022-10-19T16:18:57.755Z,99171.09
2022-10-19T16:21:29.933Z,99174.03
2022-10-19T16:23:56.907Z,99178.41
2022-10-19T16:26:26.080Z,99176.59
2022-10-19T16:28:55.145Z,99169.47
2022-10-19T16:31:22.941Z,99162.56
2022-10-19T16:33:49.859Z,99181.78
2022-10-19T16:36:20.228Z,99183.50
2022-10-19T16:38:47.580Z,99180.75
2022-10-19T16:41:15.025Z,99179.59
2022-10-19T16:43:41.854Z,99181.94
2022-10-19T16:46:08.996Z,99188.09
2022-10-19T16:48:35.937Z,99179.00
2022-10-19T16:51:05.497Z,99189.69
2022-10-19T16:53:32.788Z,99185.06
2022-10-19T16:56:08.306Z,99187.31
2022-10-19T16:58:37.178Z,99184.41
2022-10-19T17:01:12.659Z,99187.34
2022-10-19T17:03:39.585Z,99184.53
2022-10-19T17:06:07.751Z,99193.06
2022-10-19T17:08:53.059Z,99186.59
2022-10-19T17:11:24.370Z,99188.06
2022-10-19T17:13:53.881Z,99191.31
2022-10-19T17:16:21.913Z,99187.91
2022-10-19T17:18:49.913Z,99198.91
2022-10-19T17:21:20.301Z,99204.38
2022-10-19T17:23:47.816Z,99202.25
2022-10-19T17:26:14.650Z,99203.69
2022-10-19T17:28:41.542Z,99200.16
2022-10-19T17:31:13.788Z,99206.59
2022-10-19T17:33:41.520Z,99201.78
2022-10-19T17:36:11.732Z,99197.94
2022-10-19T17:38:39.637Z,99191.59
2022-10-19T17:41:12.022Z,99195.03
2022-10-19T17:43:41.294Z,99192.81
2022-10-19T17:46:12.126Z,99193.75
2022-10-19T17:48:41.483Z,99202.69
2022-10-19T17:51:12.038Z,99204.56
2022-10-19T17:53:39.159Z,99202.69
2022-10-19T17:56:07.355Z,99198.50
2022-10-19T17:58:39.039Z,99206.09
2022-10-19T18:01:08.359Z,99204.25
2022-10-19T18:03:36.251Z,99206.50
2022-10-19T18:06:12.420Z,99209.06
2022-10-19T18:08:42.483Z,99209.00
2022-10-19T18:11:11.112Z,99204.00
2022-10-19T18:13:38.467Z,99212.09
2022-10-19T18:16:17.717Z,99212.09
2022-10-19T18:18:48.572Z,99210.41
2022-10-19T18:21:17.895Z,99210.41
2022-10-19T18:23:45.443Z,99219.25
2022-10-19T18:26:19.776Z,99219.25
2022-10-19T18:28:46.882Z,99206.47
2022-10-19T18:31:17.341Z,99213.72
2022-10-19T18:33:44.312Z,99214.72
2022-10-19T18:36:11.543Z,99216.81
2022-10-19T18:38:39.134Z,99218.84
2022-10-19T18:43:43.670Z,99214.47
2022-10-19T18:46:10.743Z,99213.69
2022-10-19T18:48:38.188Z,99213.94
2022-10-19T18:51:07.624Z,99217.66
2022-10-19T18:53:35.241Z,99218.75
2022-10-19T18:56:06.161Z,99216.16
2022-10-19T18:58:33.871Z,99219.31
2022-10-19T19:01:05.533Z,99222.91
2022-10-19T19:03:33.194Z,99227.25
2022-10-19T19:06:11.637Z,99229.97
2022-10-19T19:08:39.495Z,99231.91
2022-10-19T19:11:13.580Z,99232.78
2022-10-19T19:13:41.932Z,99235.34
2022-10-19T19:16:09.185Z,99225.72
2022-10-19T19:18:36.148Z,99236.50
2022-10-19T19:21:12.623Z,99232.44
2022-10-19T19:23:39.441Z,99236.50
2022-10-19T19:26:07.517Z,99231.28
2022-10-19T19:28:36.573Z,99233.78
2022-10-19T19:31:07.298Z,99234.47
2022-10-19T19:33:34.341Z,99234.47
2022-10-19T19:36:06.362Z,99236.97
2022-10-19T19:38:34.091Z,99238.69
2022-10-19T19:41:04.411Z,99248.66
2022-10-19T19:43:33.005Z,99249.06
2022-10-19T19:46:04.634Z,99244.63
2022-10-19T19:48:35.537Z,99255.34
2022-10-19T19:51:02.278Z,99250.56
2022-10-19T19:53:29.014Z,99250.69
2022-10-19T19:55:55.728Z,99254.06
2022-10-19T19:58:22.438Z,99257.50
2022-10-19T20:00:49.228Z,99249.63
2022-10-19T20:03:16.842Z,99258.75
2022-10-19T20:05:43.600Z,99265.28
2022-10-19T20:08:11.163Z,99268.84
2022-10-19T20:10:39.461Z,99280.50
2022-10-19T20:13:06.289Z,99287.19
2022-10-19T20:15:33.333Z,99293.47
2022-10-19T20:18:00.140Z,99285.38
2022-10-19T20:20:26.892Z,99292.28
2022-10-19T20:22:53.743Z,99310.50
2022-10-19T20:25:20.451Z,99316.41
2022-10-19T20:27:47.176Z,99310.53
2022-10-19T20:30:13.967Z,99317.84
2022-10-19T20:32:40.634Z,99323.06
2022-10-19T20:35:07.789Z,99313.72
2022-10-19T20:37:34.734Z,99326.97
2022-10-19T20:40:08.189Z,99324.59
2022-10-19T20:42:35.990Z,99328.09
2022-10-19T20:45:03.713Z,99331.66
2022-10-19T20:47:30.661Z,99329.94
2022-10-19T20:49:57.472Z,99329.06
2022-10-19T20:52:24.218Z,99329.19
2022-10-19T20:54:50.920Z,99332.56
2022-10-19T20:57:17.804Z,99329.19
2022-10-19T20:59:45.934Z,99329.19
2022-10-19T21:02:12.677Z,99325.16
2022-10-19T21:04:39.443Z,99336.06
2022-10-19T21:07:06.319Z,99335.34
2022-10-19T21:09:33.445Z,99328.72
2022-10-19T21:12:01.539Z,99338.94
2022-10-19T21:14:30.048Z,99346.38
2022-10-19T21:17:00.645Z,99353.75
2022-10-19T21:19:29.346Z,99346.88
2022-10-19T21:22:01.701Z,99341.16
2022-10-19T21:24:32.548Z,99345.41
2022-10-19T21:27:05.133Z,99344.53
2022-10-19T21:29:31.858Z,99358.41
2022-10-19T21:31:59.063Z,99363.56
2022-10-19T21:34:28.353Z,99359.59
2022-10-19T21:36:55.836Z,99368.69
2022-10-19T21:39:23.068Z,99358.47
2022-10-19T21:41:50.270Z,99366.38
2022-10-19T21:44:18.077Z,99371.78
2022-10-19T21:46:47.549Z,99363.84
2022-10-19T21:49:14.627Z,99377.81
2022-10-19T21:51:46.301Z,99380.53
2022-10-19T21:54:17.125Z,99375.53
2022-10-19T21:56:44.753Z,99378.44
2022-10-19T21:59:12.233Z,99385.34
2022-10-19T22:01:41.260Z,99385.28
2022-10-19T22:04:12.589Z,99386.66
2022-10-19T22:06:39.659Z,99395.44
2022-10-19T22:09:07.747Z,99390.75
2022-10-19T22:11:34.649Z,99387.59
2022-10-19T22:14:03.481Z,99389.38
2022-10-19T22:16:31.227Z,99397.41
2022-10-19T22:18:58.556Z,99402.56
2022-10-19T22:21:28.797Z,99400.69
2022-10-19T22:24:03.242Z,99408.94
2022-10-19T22:26:38.393Z,99403.75
2022-10-19T22:29:06.876Z,99412.13
2022-10-19T22:31:35.243Z,99414.22
2022-10-19T22:34:04.963Z,99420.22
2022-10-19T22:36:31.826Z,99422.38
2022-10-19T22:38:58.537Z,99428.56
2022-10-19T22:41:25.274Z,99427.16
2022-10-19T22:43:52.009Z,99419.69
2022-10-19T22:46:18.833Z,99433.91
2022-10-19T22:48:45.621Z,99428.19
2022-10-19T22:51:12.515Z,99432.81
2022-10-19T22:53:39.256Z,99441.00
2022-10-19T22:56:06.591Z,99442.97
2022-10-19T22:58:33.477Z,99452.03
2022-10-19T23:01:01.946Z,99450.34
2022-10-19T23:03:28.878Z,99454.19
2022-10-19T23:05:55.883Z,99451.72
2022-10-19T23:08:22.901Z,99466.91
2022-10-19T23:10:49.742Z,99470.41
2022-10-19T23:13:16.747Z,99468.75
2022-10-19T23:15:44.680Z,99472.38
2022-10-19T23:18:12.545Z,99487.41
2022-10-19T23:20:39.787Z,99490.94
2022-10-19T23:23:06.683Z,99489.25
2022-10-19T23:25:33.588Z,99486.56
2022-10-19T23:28:00.331Z,99487.66
2022-10-19T23:30:27.104Z,99497.38
2022-10-19T23:32:53.840Z,99502.56
